Aurora, CO (80042)

8:57 PM MDT on March 27, 2017 (GMT -0600)
Lynn Knoll | | Change Station

Elev 5456 ft 39.72 °N, 104.83 °W | Updated 9 minutes ago

Mostly Cloudy
Mostly Cloudy
52.2 °F
Feels Like 52.2 °F
N
0.6
Wind Variable Wind from SW
Gusts 1.2 mph

Today
High -- | Low -- °F
--% Chance of Precip.
Yesterday
High -- | Low -- °F
Precip. -- in
Pressure 29.75 in
Visibility 10.0 miles
Clouds Mostly Cloudy 6000 ft
Mostly Cloudy 11000 ft
Mostly Cloudy 22000 ft
Dew Point 41 °F
Humidity 65%
Rainfall 0.00 in
Snow Depth Not available.
6:50 AM 7:18 PM
New Moon, 0% visible
METAR KBKF 280158Z 00000KT 10SM BKN060 BKN110 BKN220 10/07 A2982 RMK AO2A SLP073 T00970066
Pressure 29.75 in
Visibility 10.0 miles
Clouds Mostly Cloudy 6000 ft
Mostly Cloudy 11000 ft
Mostly Cloudy 22000 ft
Dew Point 41 °F
Humidity 65%
Rainfall 0.00 in
Snow Depth Not available.
6:50 AM 7:18 PM
New Moon, 0% visible
METAR KBKF 280158Z 00000KT 10SM BKN060 BKN110 BKN220 10/07 A2982 RMK AO2A SLP073 T00970066

Get Severe Weather Alerts

Thanks for signing up!

Be on the lookout for a verification email in your inbox.

You'll start receiving the daily forecast at 8 AM.

×

10-Day Weather Forecast

Almanac

Astronomy

Mar. 27, 2017 Rise Set
Actual Time
Civil Twilight
Nautical Twilight
Astronomical Twilight
Moon
Length of Visible Light
Length of Day
Tomorrow will be .
, % of the Moon is Illuminated

Today's Extremes

State Highs State Lows

Community

WunderPhotos

Upload Photos

1,962,540 photos uploaded!

WunderBlog® & News

Nearby

Air Quality

  Air Quality AQ Index Pollutant
Not available.

Snow Depth

Station Depth Elevation

Earthquake Activity

City Distance Mag. Time & Date
Minimum magnitude displayed is 2.5.

Earthquake Activity

City Distance Mag. Time & Date
Minimum magnitude displayed is 2.5.

Coastal Water Temperatures

Place Temperature

Stations

Nearby Weather Stations

Station Location Temp. Windchill Dew Point Humidity Wind Precip. Elev Updated Type
                   

Watches & Warnings

There are currently no watches in effect.